Huvudsida
METAR-TAF:

METAR-TAF

Flygplatser :

Harstad-Narviks flygplats. Evenes

Evenes, Norge

latitud: 68-31N, longitud: 016-41E, höjd: 26 m

Aktuellt väderrapport

Denna rapport gjordes för 1 timme och 4 minuter sedan, klockan 17:50 UTC
Vind 2 kt varierande vindriktning
Temperatur 2°C
Fuktighet 93%
Tryck 990 hPa
Sikt 10 km eller mer
Spridda moln på en höjd av 900 ft
Brutna moln på en höjd av 1700 ft
lätt regn

METAR: ENEV 231750Z VRB02KT 9999 -RA SCT009 BKN017 02/01 Q0990 RMK WIND 1400FT 23010KT

Tid: 20:54 (18:54 UTC)

Väderprognos

Denna rapport gjordes för 1 timme och 54 minuter sedan, klockan 17:00 UTC
Prognos gäller från 23 kl. 18 UTC till 23 kl. 21 UTC
Vind 5 kt från syd
Sikt 10 km eller mer
Brutna moln på en höjd av 3000 ft
lätta regnskurar

TAF: ENEV 231700Z 2318/2321 18005KT 9999 -SHRA BKN030

Aktuella väderrapporter och prognoser från 4000 flygplatser (METAR- och TAF-rapporter).

De tillgängliga stationerna syns som gula och röda prickar på kartan.

För musen över prickarna för att se namnen på stationerna.

Klicka sedan för att få väderrapporter och prognoser.

För att ändra kartan: Klicka på de gröna knapparna med ett svart kors på för att zooma in; den gröna knappen med ett streck på för att zooma ut; eller på de gröna pilarna för angränsande kartor.


METAR-TAF: